Terminal Aerodrome Forecast
Issued by NWS

Home | Current Version | Previous Version | Graphics & Text | Print | Product List | Glossary Off
Versions: 1 2 3 4 5 6 7 8 9 10 11 12 13 14 15 16 17

000
FTUS43 KGRB 262328
TAFCWA
TAF
KCWA 262328Z 2700/2724 25005KT P6SM SCT040 BKN150
     FM270200 VRB03KT P6SM SCT100 BKN120
     FM271000 12003KT 6SM -RA BR SCT020 OVC060
     FM271200 10006KT 5SM -SHRA BR BKN020
     FM271800 13007KT P6SM BKN025=

USA.gov is the U.S. government's official web portal to all federal, state and local government web resources and services.